createdAt,value
2018-04-25T00:01:30.830Z,12.50
2018-04-25T00:04:07.498Z,13.37
2018-04-25T00:06:38.205Z,13.10
2018-04-25T00:09:07.968Z,13.13
2018-04-25T00:11:39.834Z,13.13
2018-04-25T00:14:09.687Z,16.87
2018-04-25T00:16:39.912Z,12.73
2018-04-25T00:19:09.497Z,12.50
2018-04-25T00:21:38.854Z,13.37
2018-04-25T00:24:08.320Z,13.60
2018-04-25T00:26:38.213Z,12.70
2018-04-25T00:29:08.330Z,11.43
2018-04-25T00:31:37.851Z,11.93
2018-04-25T00:34:07.219Z,11.03
2018-04-25T00:36:36.791Z,11.50
2018-04-25T00:39:06.502Z,11.70
2018-04-25T00:41:38.467Z,13.17
2018-04-25T00:44:08.049Z,10.70
2018-04-25T00:46:37.774Z,10.80
2018-04-25T00:49:07.358Z,10.33
2018-04-25T00:51:39.273Z,8.70
2018-04-25T00:54:08.808Z,10.00
2018-04-25T00:56:42.555Z,9.13
2018-04-25T00:59:12.312Z,10.77
2018-04-25T01:01:41.931Z,9.53
2018-04-25T01:04:11.517Z,9.40
2018-04-25T01:06:41.284Z,9.60
2018-04-25T01:09:10.832Z,10.37
2018-04-25T01:15:03.426Z,10.53
2018-04-25T01:17:35.253Z,10.67
2018-04-25T01:20:06.120Z,10.00
2018-04-25T01:22:38.178Z,11.40
2018-04-25T01:25:23.731Z,12.43
2018-04-25T01:28:00.110Z,9.43
2018-04-25T01:30:32.735Z,10.03
2018-04-25T01:36:33.636Z,9.87
2018-04-25T01:39:19.785Z,9.00
2018-04-25T01:41:49.467Z,9.40
2018-04-25T01:44:25.599Z,10.27
2018-04-25T01:47:02.659Z,9.50
2018-04-25T01:52:57.887Z,9.37
2018-04-25T01:55:39.323Z,10.13
2018-04-25T01:58:20.011Z,9.37
2018-04-25T02:04:11.683Z,8.53
2018-04-25T02:06:40.968Z,8.37
2018-04-25T02:09:10.250Z,8.90
2018-04-25T02:11:39.623Z,8.80
2018-04-25T02:14:43.696Z,9.80
2018-04-25T02:17:13.084Z,8.93
2018-04-25T02:19:42.291Z,9.77
2018-04-25T02:22:11.616Z,10.73
2018-04-25T02:24:41.472Z,12.70
2018-04-25T02:27:10.803Z,11.07
2018-04-25T02:29:42.853Z,10.23
2018-04-25T02:32:13.613Z,11.17
2018-04-25T02:34:44.939Z,11.70
2018-04-25T02:38:02.321Z,10.10
2018-04-25T02:40:32.496Z,10.10
2018-04-25T02:43:02.756Z,9.40
2018-04-25T02:45:33.671Z,9.23
2018-04-25T02:48:03.854Z,10.37
2018-04-25T02:50:33.971Z,11.10
2018-04-25T02:53:03.541Z,10.30
2018-04-25T02:58:54.064Z,9.53
2018-04-25T03:01:23.352Z,11.73
2018-04-25T03:03:52.693Z,12.10
2018-04-25T03:06:22.852Z,12.27
2018-04-25T03:08:57.038Z,14.23
2018-04-25T03:11:27.907Z,15.70
2018-04-25T03:13:58.382Z,14.27
2018-04-25T03:16:27.935Z,13.53
2018-04-25T03:18:59.210Z,11.67
2018-04-25T03:21:29.370Z,10.73
2018-04-25T03:24:01.714Z,11.67
2018-04-25T03:26:32.995Z,11.43
2018-04-25T03:29:07.568Z,10.60
2018-04-25T03:31:52.184Z,11.80
2018-04-25T03:34:23.822Z,11.07
2018-04-25T03:36:54.676Z,10.43
2018-04-25T03:39:25.244Z,10.37
2018-04-25T03:41:56.709Z,10.43
2018-04-25T03:44:27.418Z,9.93
2018-04-25T03:46:57.673Z,10.60
2018-04-25T03:49:26.961Z,11.53
2018-04-25T03:51:58.016Z,10.27
2018-04-25T03:54:29.732Z,12.50
2018-04-25T03:57:00.944Z,13.73
2018-04-25T03:59:31.155Z,11.90
2018-04-25T04:02:01.562Z,10.43
2018-04-25T04:04:32.366Z,10.10
2018-04-25T04:07:01.833Z,9.33
2018-04-25T04:09:31.197Z,8.87
2018-04-25T04:12:00.553Z,9.87
2018-04-25T04:14:30.692Z,9.97
2018-04-25T04:16:59.950Z,9.40
2018-04-25T04:19:29.297Z,10.80
2018-04-25T04:21:58.872Z,11.77
2018-04-25T04:24:28.395Z,11.97
2018-04-25T04:26:57.955Z,16.50
2018-04-25T04:29:27.267Z,16.70
2018-04-25T04:31:56.722Z,17.90
2018-04-25T04:34:26.114Z,15.50
2018-04-25T04:36:55.530Z,12.77
2018-04-25T04:39:24.749Z,12.33
2018-04-25T04:41:54.096Z,11.60
2018-04-25T04:44:23.441Z,12.30
2018-04-25T04:46:52.713Z,10.03
2018-04-25T04:49:22.039Z,10.10
2018-04-25T04:51:51.339Z,9.50
2018-04-25T04:54:20.693Z,9.10
2018-04-25T04:56:50.725Z,10.10
2018-04-25T04:59:20.784Z,9.93
2018-04-25T05:01:50.029Z,9.43
2018-04-25T05:04:19.376Z,9.80
2018-04-25T05:06:48.630Z,8.80
2018-04-25T05:09:17.967Z,8.53
2018-04-25T05:11:47.254Z,8.43
2018-04-25T05:14:17.349Z,8.93
2018-04-25T05:16:47.479Z,8.67
2018-04-25T05:19:16.776Z,8.10
2018-04-25T05:21:46.029Z,8.10
2018-04-25T05:24:15.407Z,9.40
2018-04-25T05:26:44.665Z,8.83
2018-04-25T05:29:14.000Z,9.00
2018-04-25T05:31:43.287Z,8.60
2018-04-25T05:34:13.364Z,9.00
2018-04-25T05:40:09.702Z,9.10
2018-04-25T05:42:39.767Z,8.50
2018-04-25T05:45:09.294Z,9.33
2018-04-25T05:47:38.925Z,8.90
2018-04-25T05:50:08.244Z,9.70
2018-04-25T05:52:37.563Z,9.67
2018-04-25T05:55:07.106Z,9.50
2018-04-25T05:57:36.437Z,9.90
2018-04-25T06:00:06.573Z,9.53
2018-04-25T06:02:35.946Z,10.27
2018-04-25T06:05:05.303Z,13.23
2018-04-25T06:11:05.700Z,10.33
2018-04-25T06:13:35.010Z,9.97
2018-04-25T06:16:04.557Z,10.63
2018-04-25T06:18:34.037Z,10.60
2018-04-25T06:21:03.397Z,9.97
2018-04-25T06:23:32.868Z,10.53
2018-04-25T06:26:02.277Z,10.50
2018-04-25T06:28:31.873Z,10.73
2018-04-25T06:31:02.178Z,11.23
2018-04-25T06:33:31.600Z,10.53
2018-04-25T06:36:00.910Z,10.20
2018-04-25T06:41:51.868Z,10.00
2018-04-25T06:44:21.463Z,10.67
2018-04-25T06:46:51.118Z,10.23
2018-04-25T06:49:20.595Z,11.53
2018-04-25T06:51:50.008Z,13.20
2018-04-25T06:54:19.419Z,16.67
2018-04-25T06:56:49.003Z,15.90
2018-04-25T06:59:18.416Z,15.73
2018-04-25T07:01:47.826Z,12.60
2018-04-25T07:04:17.317Z,11.70
2018-04-25T07:06:46.727Z,11.87
2018-04-25T07:09:16.136Z,10.87
2018-04-25T07:11:45.636Z,11.40
2018-04-25T07:14:15.040Z,10.73
2018-04-25T07:16:44.469Z,12.17
2018-04-25T07:19:13.971Z,11.77
2018-04-25T07:21:43.384Z,12.37
2018-04-25T07:24:12.786Z,12.33
2018-04-25T07:26:42.256Z,12.10
2018-04-25T07:29:11.660Z,11.33
2018-04-25T07:31:41.075Z,10.83
2018-04-25T07:34:10.538Z,11.37
2018-04-25T07:36:40.703Z,11.40
2018-04-25T07:39:10.190Z,11.90
2018-04-25T07:41:39.653Z,11.50
2018-04-25T07:44:09.897Z,11.60
2018-04-25T07:46:40.216Z,11.67
2018-04-25T07:49:09.612Z,11.70
2018-04-25T07:51:39.822Z,11.27
2018-04-25T07:54:09.280Z,12.67
2018-04-25T07:56:38.671Z,11.97
2018-04-25T07:59:08.220Z,13.03
2018-04-25T08:01:37.623Z,13.40
2018-04-25T08:04:07.033Z,12.63
2018-04-25T08:06:36.511Z,12.20
2018-04-25T08:09:06.232Z,12.53
2018-04-25T08:11:35.703Z,12.70
2018-04-25T08:14:16.373Z,14.13
2018-04-25T08:16:56.944Z,14.33
2018-04-25T08:19:37.471Z,18.53
2018-04-25T08:22:06.917Z,15.67
2018-04-25T08:24:36.425Z,14.90
2018-04-25T08:27:05.833Z,15.03
2018-04-25T08:29:35.304Z,13.57
2018-04-25T08:32:04.702Z,15.07
2018-04-25T08:34:34.108Z,13.67
2018-04-25T08:37:04.344Z,15.23
2018-04-25T08:39:33.772Z,14.57
2018-04-25T08:42:03.188Z,14.63
2018-04-25T08:44:32.660Z,15.03
2018-04-25T08:47:02.480Z,15.30
2018-04-25T08:49:32.100Z,14.60
2018-04-25T08:52:01.735Z,15.87
2018-04-25T08:54:31.132Z,14.10
2018-04-25T08:57:00.551Z,15.13
2018-04-25T08:59:30.124Z,14.17
2018-04-25T09:01:59.731Z,14.53
2018-04-25T09:04:29.150Z,15.53
2018-04-25T09:06:58.765Z,15.17
2018-04-25T09:09:28.369Z,15.27
2018-04-25T09:11:57.837Z,14.97
2018-04-25T09:14:27.239Z,14.33
2018-04-25T09:16:56.639Z,14.80
2018-04-25T09:19:26.116Z,16.80
2018-04-25T09:21:55.516Z,15.87
2018-04-25T09:24:25.925Z,16.13
2018-04-25T09:26:56.113Z,17.27
2018-04-25T09:29:25.543Z,16.10
2018-04-25T09:31:55.068Z,16.37
2018-04-25T09:34:24.504Z,17.20
2018-04-25T09:40:14.936Z,16.50
2018-04-25T09:42:45.253Z,16.77
2018-04-25T09:45:14.973Z,18.43
2018-04-25T09:47:44.697Z,16.67
2018-04-25T09:50:15.262Z,17.23
2018-04-25T09:52:45.575Z,16.13
2018-04-25T09:55:15.616Z,15.40
2018-04-25T09:57:45.202Z,14.83
2018-04-25T10:00:15.130Z,14.93
2018-04-25T10:02:44.962Z,15.07
2018-04-25T10:05:14.787Z,14.67
2018-04-25T10:07:45.089Z,14.37
2018-04-25T10:10:14.795Z,14.57
2018-04-25T10:12:44.554Z,14.10
2018-04-25T10:15:14.343Z,13.87
2018-04-25T10:21:16.445Z,14.00
2018-04-25T10:23:46.009Z,14.27
2018-04-25T10:26:15.714Z,14.13
2018-04-25T10:28:45.498Z,12.83
2018-04-25T10:31:15.164Z,13.50
2018-04-25T10:33:44.948Z,12.77
2018-04-25T10:36:14.613Z,13.90
2018-04-25T10:38:44.179Z,13.43
2018-04-25T10:41:13.995Z,14.27
2018-04-25T10:43:43.600Z,14.50
2018-04-25T10:46:13.245Z,14.77
2018-04-25T10:48:43.080Z,14.47
2018-04-25T10:51:12.885Z,13.47
2018-04-25T10:53:42.453Z,15.30
2018-04-25T10:56:13.008Z,18.13
2018-04-25T10:58:42.598Z,22.70
2018-04-25T11:01:12.346Z,21.63
2018-04-25T11:03:41.919Z,20.47
2018-04-25T11:06:11.601Z,21.70
2018-04-25T11:08:41.292Z,23.60
2018-04-25T11:11:10.952Z,22.07
2018-04-25T11:13:40.524Z,22.77
2018-04-25T11:19:31.279Z,16.07
2018-04-25T11:22:00.685Z,16.73
2018-04-25T11:24:30.143Z,17.30
2018-04-25T11:26:59.571Z,17.87
2018-04-25T11:29:28.969Z,21.03
2018-04-25T11:31:58.420Z,19.10
2018-04-25T11:34:27.904Z,18.33
2018-04-25T11:36:57.220Z,21.13
2018-04-25T11:39:26.656Z,27.47
2018-04-25T11:41:56.052Z,27.93
2018-04-25T11:47:56.821Z,23.30
2018-04-25T11:50:25.980Z,21.13
2018-04-25T11:52:55.219Z,21.97
2018-04-25T11:55:30.678Z,18.77
2018-04-25T11:58:00.224Z,23.20
2018-04-25T12:00:29.514Z,21.70
2018-04-25T12:03:01.601Z,24.57
2018-04-25T12:05:30.864Z,24.20
2018-04-25T12:08:00.153Z,24.07
2018-04-25T12:10:29.397Z,23.87
2018-04-25T12:12:58.630Z,26.20
2018-04-25T12:15:28.696Z,27.40
2018-04-25T12:17:57.855Z,27.90
2018-04-25T12:20:27.159Z,30.70
2018-04-25T12:22:56.464Z,23.27
2018-04-25T12:25:25.755Z,19.10
2018-04-25T12:27:56.844Z,18.60
2018-04-25T12:33:49.875Z,19.43
2018-04-25T12:36:22.431Z,20.43
2018-04-25T12:38:58.301Z,18.00
2018-04-25T12:41:31.409Z,20.13
2018-04-25T12:44:03.944Z,19.17
2018-04-25T12:46:37.110Z,19.10
2018-04-25T12:49:06.567Z,19.73
2018-04-25T12:51:36.143Z,20.07
2018-04-25T12:54:05.937Z,19.67
2018-04-25T12:56:35.473Z,21.33
2018-04-25T13:02:25.969Z,20.67
2018-04-25T13:04:55.510Z,20.37
2018-04-25T13:07:24.902Z,21.13
2018-04-25T13:09:54.572Z,21.93
2018-04-25T13:12:23.802Z,22.57
2018-04-25T13:14:53.076Z,22.10
2018-04-25T13:17:22.404Z,23.43
2018-04-25T13:19:51.647Z,22.20
2018-04-25T13:22:20.924Z,23.57
2018-04-25T13:24:50.252Z,24.30
2018-04-25T13:27:19.463Z,24.30
2018-04-25T13:29:49.517Z,25.27
2018-04-25T13:32:18.795Z,26.10
2018-04-25T13:34:48.790Z,22.37
2018-04-25T13:37:18.032Z,19.60
2018-04-25T13:39:47.341Z,22.07
2018-04-25T13:42:16.607Z,20.87
2018-04-25T13:44:46.632Z,19.37
2018-04-25T13:47:15.983Z,20.13
2018-04-25T13:49:45.222Z,21.10
2018-04-25T13:52:14.496Z,19.73
2018-04-25T13:54:44.669Z,16.10
2018-04-25T13:57:13.948Z,14.30
2018-04-25T13:59:43.214Z,19.30
2018-04-25T14:02:13.021Z,15.70
2018-04-25T14:04:42.290Z,15.30
2018-04-25T14:07:11.602Z,18.33
2018-04-25T14:09:40.860Z,14.13
2018-04-25T14:12:14.734Z,14.60
2018-04-25T14:14:50.788Z,14.63
2018-04-25T14:17:25.315Z,14.87
2018-04-25T14:19:54.775Z,13.80
2018-04-25T14:22:24.919Z,13.10
2018-04-25T14:24:54.906Z,13.27
2018-04-25T14:27:25.031Z,13.80
2018-04-25T14:29:54.296Z,13.00
2018-04-25T14:32:23.562Z,12.73
2018-04-25T14:34:52.890Z,16.10
2018-04-25T14:37:22.156Z,13.70
2018-04-25T14:39:51.401Z,14.10
2018-04-25T14:42:20.754Z,16.13
2018-04-25T14:44:51.345Z,12.60
2018-04-25T14:47:20.636Z,11.90
2018-04-25T14:49:50.137Z,10.87
2018-04-25T14:52:23.077Z,12.10
2018-04-25T14:54:52.897Z,10.63
2018-04-25T15:00:44.602Z,13.33
2018-04-25T15:03:15.043Z,14.23
2018-04-25T15:09:15.727Z,8.93
2018-04-25T15:11:45.028Z,12.57
2018-04-25T15:14:14.305Z,11.03
2018-04-25T15:16:43.691Z,16.00
2018-04-25T15:19:12.917Z,12.43
2018-04-25T15:21:42.183Z,10.60
2018-04-25T15:24:11.525Z,13.40
2018-04-25T15:26:41.446Z,11.73
2018-04-25T15:29:10.904Z,11.00
2018-04-25T15:31:40.335Z,11.85
2018-04-25T15:34:10.550Z,12.43
2018-04-25T15:36:40.040Z,13.93
2018-04-25T15:39:09.371Z,12.13
2018-04-25T15:41:38.639Z,19.42
2018-04-25T15:44:09.286Z,17.02
2018-04-25T15:46:38.620Z,10.77
2018-04-25T15:49:07.925Z,12.70
2018-04-25T15:51:37.239Z,14.05
2018-04-25T15:54:06.587Z,11.40
2018-04-25T15:56:35.941Z,12.63
2018-04-25T15:59:05.391Z,12.13
2018-04-25T16:01:34.667Z,13.00
2018-04-25T16:04:03.956Z,15.30
2018-04-25T16:06:33.268Z,11.90
2018-04-25T16:09:02.538Z,10.85
2018-04-25T16:11:31.820Z,11.55
2018-04-25T16:14:01.439Z,12.93
2018-04-25T16:16:30.727Z,15.00
2018-04-25T16:19:00.010Z,15.07
2018-04-25T16:24:58.227Z,11.88
2018-04-25T16:27:28.561Z,10.38
2018-04-25T16:29:58.193Z,10.60
2018-04-25T16:32:27.642Z,10.55
2018-04-25T16:35:00.429Z,9.32
2018-04-25T16:37:32.645Z,9.85
2018-04-25T16:40:05.496Z,9.77
2018-04-25T16:42:35.189Z,9.30
2018-04-25T16:45:04.575Z,9.90
2018-04-25T16:47:33.896Z,10.98
2018-04-25T16:50:03.362Z,10.10
2018-04-25T16:55:54.629Z,11.30
2018-04-25T16:58:24.278Z,9.05
2018-04-25T17:00:53.935Z,9.57
2018-04-25T17:03:23.625Z,10.13
2018-04-25T17:05:55.568Z,10.27
2018-04-25T17:08:26.056Z,8.30
2018-04-25T17:10:55.784Z,9.57
2018-04-25T17:13:25.962Z,8.32
2018-04-25T17:15:56.624Z,8.20
2018-04-25T17:19:09.220Z,8.57
2018-04-25T17:21:41.763Z,10.43
2018-04-25T17:24:12.298Z,11.32
2018-04-25T17:27:32.025Z,11.00
2018-04-25T17:30:01.923Z,7.32
2018-04-25T17:32:31.402Z,7.97
2018-04-25T17:35:00.799Z,7.28
2018-04-25T17:37:30.346Z,7.30
2018-04-25T17:39:59.979Z,7.15
2018-04-25T17:42:29.596Z,9.43
2018-04-25T17:44:59.102Z,8.18
2018-04-25T17:47:28.661Z,9.05
2018-04-25T17:49:58.197Z,8.15
2018-04-25T17:52:27.718Z,8.63
2018-04-25T17:54:57.987Z,7.05
2018-04-25T17:57:27.376Z,8.45
2018-04-25T17:59:56.929Z,7.18
2018-04-25T18:02:26.293Z,8.13
2018-04-25T18:04:55.769Z,9.20
2018-04-25T18:07:25.265Z,8.38
2018-04-25T18:09:54.692Z,9.20
2018-04-25T18:12:24.183Z,9.07
2018-04-25T18:14:54.108Z,8.00
2018-04-25T18:17:24.801Z,8.48
2018-04-25T18:19:54.925Z,8.20
2018-04-25T18:22:25.670Z,8.93
2018-04-25T18:24:55.435Z,7.65
2018-04-25T18:27:25.128Z,8.00
2018-04-25T18:29:54.615Z,7.57
2018-04-25T18:32:24.472Z,7.70
2018-04-25T18:38:14.874Z,7.90
2018-04-25T18:40:44.241Z,9.05
2018-04-25T18:43:15.082Z,8.63
2018-04-25T18:45:44.301Z,7.90
2018-04-25T18:48:13.641Z,6.32
2018-04-25T18:50:43.035Z,6.82
2018-04-25T18:53:12.373Z,7.22
2018-04-25T18:55:43.074Z,7.45
2018-04-25T18:58:12.467Z,7.12
2018-04-25T19:00:41.709Z,8.65
2018-04-25T19:03:11.113Z,7.03
2018-04-25T19:05:40.461Z,7.62
2018-04-25T19:08:09.699Z,8.00
2018-04-25T19:10:39.051Z,7.35
2018-04-25T19:13:08.254Z,7.18
2018-04-25T19:15:37.593Z,7.03
2018-04-25T19:18:06.867Z,7.57
2018-04-25T19:20:36.204Z,6.45
2018-04-25T19:23:05.456Z,7.10
2018-04-25T19:25:34.720Z,7.82
2018-04-25T19:28:04.846Z,7.28
2018-04-25T19:30:34.106Z,9.07
2018-04-25T19:33:03.496Z,10.40
2018-04-25T19:35:43.484Z,9.55
2018-04-25T19:38:13.325Z,11.55
2018-04-25T19:40:43.596Z,7.70
2018-04-25T19:43:18.216Z,8.00
2018-04-25T19:45:54.043Z,6.85
2018-04-25T19:48:25.867Z,7.62
2018-04-25T19:50:55.956Z,8.35
2018-04-25T19:53:27.908Z,8.68
2018-04-25T19:56:02.126Z,7.70
2018-04-25T20:01:53.047Z,7.28
2018-04-25T20:04:30.063Z,6.43
2018-04-25T20:07:05.158Z,6.25
2018-04-25T20:09:39.573Z,6.60
2018-04-25T20:12:14.095Z,7.28
2018-04-25T20:14:53.916Z,6.47
2018-04-25T20:17:30.193Z,6.65
2018-04-25T20:20:04.433Z,6.87
2018-04-25T20:25:56.790Z,7.18
2018-04-25T20:28:26.081Z,7.40
2018-04-25T20:30:55.628Z,7.50
2018-04-25T20:33:25.108Z,8.20
2018-04-25T20:36:01.233Z,7.32
2018-04-25T20:38:30.753Z,8.85
2018-04-25T20:41:00.901Z,7.12
2018-04-25T20:43:31.461Z,8.00
2018-04-25T20:46:02.846Z,6.97
2018-04-25T20:48:33.143Z,7.50
2018-04-25T20:51:02.494Z,6.80
2018-04-25T20:53:31.770Z,7.35
2018-04-25T20:56:01.222Z,5.78
2018-04-25T20:58:30.569Z,5.37
2018-04-25T21:00:59.830Z,7.87
2018-04-25T21:03:30.520Z,6.60
2018-04-25T21:06:01.090Z,7.00
2018-04-25T21:08:31.380Z,6.18
2018-04-25T21:11:01.523Z,6.93
2018-04-25T21:13:30.979Z,7.20
2018-04-25T21:16:01.187Z,6.00
2018-04-25T21:18:31.053Z,7.45
2018-04-25T21:21:01.372Z,6.90
2018-04-25T21:23:31.744Z,8.02
2018-04-25T21:26:01.384Z,7.32
2018-04-25T21:32:02.671Z,6.50
2018-04-25T21:34:32.185Z,11.05
2018-04-25T21:37:02.664Z,7.87
2018-04-25T21:39:40.700Z,8.35
2018-04-25T21:42:11.075Z,10.10
2018-04-25T21:44:40.743Z,7.25
2018-04-25T21:47:13.812Z,7.15
2018-04-25T21:49:43.879Z,6.47
2018-04-25T21:55:11.167Z,9.10
2018-04-25T21:57:54.623Z,31.92
2018-04-25T22:00:35.274Z,43.57
2018-04-25T22:06:27.527Z,44.13
2018-04-25T22:09:02.451Z,45.83
2018-04-25T22:11:34.716Z,47.73
2018-04-25T22:14:03.976Z,48.60
2018-04-25T22:16:33.283Z,49.13
2018-04-25T22:22:24.184Z,52.20
2018-04-25T22:24:53.553Z,54.80
2018-04-25T22:27:22.977Z,53.47
2018-04-25T22:29:52.449Z,52.13
2018-04-25T22:32:21.818Z,55.57
2018-04-25T22:34:51.199Z,57.03
2018-04-25T22:37:20.864Z,52.83
2018-04-25T22:39:55.111Z,54.70
2018-04-25T22:42:26.180Z,50.90
2018-04-25T22:44:56.375Z,55.80
2018-04-25T22:47:25.867Z,56.93
2018-04-25T22:49:55.245Z,56.47
2018-04-25T22:52:24.684Z,55.70
2018-04-25T22:54:54.146Z,56.23
2018-04-25T22:57:23.573Z,57.53
2018-04-25T22:59:53.582Z,60.73
2018-04-25T23:02:23.520Z,59.67
2018-04-25T23:04:53.400Z,58.17
2018-04-25T23:07:22.871Z,60.70
2018-04-25T23:09:52.354Z,58.60
2018-04-25T23:12:21.731Z,59.00
2018-04-25T23:14:51.092Z,57.43
2018-04-25T23:17:20.555Z,60.43
2018-04-25T23:19:49.967Z,60.60
2018-04-25T23:22:19.505Z,59.17
2018-04-25T23:24:48.865Z,60.10
2018-04-25T23:27:18.243Z,64.20
2018-04-25T23:29:47.779Z,64.63
2018-04-25T23:32:18.514Z,62.67
2018-04-25T23:34:47.993Z,69.40
2018-04-25T23:37:17.365Z,73.03
2018-04-25T23:39:46.747Z,65.70
2018-04-25T23:42:16.193Z,66.37
2018-04-25T23:44:45.558Z,67.97
2018-04-25T23:47:14.933Z,66.93
2018-04-25T23:49:44.556Z,64.33
2018-04-25T23:52:14.131Z,67.40
2018-04-25T23:54:50.936Z,66.03
2018-04-25T23:57:30.120Z,66.53
